Time;durP1;ratioP1;P1;durP2;ratioP2;P2;SDS_P1;SDS_P2;PMS_P1;PMS_P2;Temp;Humidity;BMP_temperature;BMP_pressure;BME280_temperature;BME280_humidity;BME280_pressure;Samples;Min_cycle;Max_cycle;Signal;HPM_P1;HPM_P2
2021/08/30 00:01:41;;;;;;;4.40;4.00;;;14.00;99.90;;;;;;5054696;28;20193;-77
2021/08/30 00:04:07;;;;;;;4.60;4.20;;;14.10;99.90;;;;;;5053004;28;20210;-76
2021/08/30 00:06:32;;;;;;;5.87;5.27;;;13.80;99.90;;;;;;5051970;28;20200;-76
2021/08/30 00:08:58;;;;;;;5.87;5.13;;;14.10;99.90;;;;;;5052248;28;20552;-76
2021/08/30 00:11:23;;;;;;;4.80;4.40;;;14.10;99.90;;;;;;5060084;28;20247;-77
2021/08/30 00:13:49;;;;;;;5.20;4.70;;;13.80;99.90;;;;;;5053047;28;20193;-76
2021/08/30 00:16:15;;;;;;;5.23;4.73;;;13.90;99.90;;;;;;5051870;28;20260;-76
2021/08/30 00:18:41;;;;;;;5.80;5.20;;;14.10;99.90;;;;;;5038211;28;20216;-76
2021/08/30 00:21:06;;;;;;;6.20;5.60;;;13.80;99.90;;;;;;5065263;28;20516;-76
2021/08/30 00:23:32;;;;;;;6.07;5.47;;;14.10;99.90;;;;;;5062058;28;21000;-76
2021/08/30 00:25:58;;;;;;;5.60;5.10;;;14.30;99.90;;;;;;5051205;28;20171;-76
2021/08/30 00:28:23;;;;;;;7.33;6.20;;;14.00;99.90;;;;;;5063325;28;20191;-76
2021/08/30 00:30:49;;;;;;;6.73;5.93;;;14.20;99.90;;;;;;5057993;28;20648;-76
2021/08/30 00:33:15;;;;;;;6.53;5.80;;;14.20;99.90;;;;;;5056864;28;20214;-76
2021/08/30 00:35:40;;;;;;;5.77;5.27;;;14.30;99.90;;;;;;5066842;28;20217;-76
2021/08/30 00:38:07;;;;;;;6.23;5.40;;;14.20;99.90;;;;;;5051380;28;20523;-76
2021/08/30 00:40:35;;;;;;;6.70;6.00;;;14.10;99.90;;;;;;5055273;28;20190;-76
2021/08/30 00:43:02;;;;;;;8.43;6.93;;;14.30;99.90;;;;;;5055154;28;20475;-76
2021/08/30 00:45:28;;;;;;;7.43;6.70;;;14.20;99.90;;;;;;5050812;28;20452;-76
2021/08/30 00:47:54;;;;;;;7.43;6.73;;;14.20;99.90;;;;;;5050756;28;21296;-76
2021/08/30 00:50:20;;;;;;;7.40;6.20;;;14.20;99.90;;;;;;5059078;28;20182;-76
2021/08/30 00:52:46;;;;;;;7.10;6.20;;;14.00;99.90;;;;;;5059203;28;20433;-76
2021/08/30 00:55:13;;;;;;;7.37;6.33;;;14.20;99.90;;;;;;5049268;28;20425;-76
2021/08/30 00:57:39;;;;;;;8.50;7.60;;;14.20;99.90;;;;;;5065231;28;20432;-76
2021/08/30 01:00:06;;;;;;;8.03;7.23;;;14.30;99.90;;;;;;5050041;28;20935;-76
2021/08/30 01:02:33;;;;;;;8.63;6.90;;;14.20;99.90;;;;;;5051118;28;20429;-77
2021/08/30 01:04:59;;;;;;;9.53;8.20;;;14.20;99.90;;;;;;5033378;28;20439;-76
2021/08/30 01:08:01;;;;;;;7.97;7.17;;;14.20;99.90;;;;;;5047882;28;20945;-76
2021/08/30 01:10:44;;;;;;;8.83;7.27;;;14.00;99.90;;;;;;5044688;28;20531;-76
2021/08/30 01:13:19;;;;;;;8.33;7.53;;;14.30;99.90;;;;;;5044386;28;20985;-76
2021/08/30 01:15:45;;;;;;;7.67;6.93;;;14.10;99.90;;;;;;5050552;28;20448;-76
2021/08/30 01:18:25;;;;;;;8.53;7.00;;;14.20;99.90;;;;;;5054045;28;20437;-77
2021/08/30 01:21:06;;;;;;;9.37;8.40;;;14.30;99.90;;;;;;5057333;28;20441;-76
2021/08/30 01:23:35;;;;;;;8.50;7.60;;;14.10;99.90;;;;;;5049995;28;20548;-76
2021/08/30 01:26:03;;;;;;;8.73;7.83;;;14.30;99.90;;;;;;5057896;28;20469;-76
2021/08/30 01:28:35;;;;;;;10.10;9.10;;;14.30;99.90;;;;;;5054357;28;20475;-76
2021/08/30 01:31:13;;;;;;;10.00;8.83;;;14.20;99.90;;;;;;5050990;28;20483;-76
2021/08/30 01:33:40;;;;;;;11.17;9.90;;;14.20;99.90;;;;;;5050078;28;20443;-77
2021/08/30 01:36:05;;;;;;;11.67;9.33;;;14.00;99.90;;;;;;5053660;28;20475;-76
2021/08/30 01:38:31;;;;;;;8.90;8.00;;;14.30;99.90;;;;;;5050173;28;20461;-76
2021/08/30 01:40:58;;;;;;;11.17;10.03;;;14.30;99.90;;;;;;5043517;28;20210;-76
2021/08/30 01:43:24;;;;;;;11.27;10.07;;;14.10;99.90;;;;;;5054986;28;20547;-76
2021/08/30 01:45:50;;;;;;;11.43;10.33;;;13.90;99.90;;;;;;5055340;28;20536;-76
2021/08/30 01:48:18;;;;;;;11.10;10.00;;;14.10;99.90;;;;;;5049637;28;20226;-76
2021/08/30 01:50:44;;;;;;;10.00;8.80;;;13.90;99.90;;;;;;5050032;28;20629;-76
2021/08/30 01:53:10;;;;;;;10.40;9.13;;;14.10;99.90;;;;;;5049537;28;20790;-76
2021/08/30 01:55:42;;;;;;;10.50;9.40;;;14.30;99.90;;;;;;5050052;28;20444;-76
2021/08/30 02:00:43;;;;;;;11.40;10.27;;;14.10;99.90;;;;;;5044953;28;20497;-75
2021/08/30 02:03:14;;;;;;;10.13;9.13;;;14.30;99.90;;;;;;5049518;28;20492;-76
2021/08/30 02:05:43;;;;;;;12.13;10.93;;;14.30;99.90;;;;;;5053072;28;20538;-76
2021/08/30 02:08:08;;;;;;;9.97;8.97;;;14.40;99.90;;;;;;5048904;28;21387;-76
2021/08/30 02:10:34;;;;;;;10.67;9.67;;;14.20;99.90;;;;;;5049481;28;20452;-76
2021/08/30 02:13:00;;;;;;;10.97;9.87;;;14.30;99.90;;;;;;5049397;28;20182;-76
2021/08/30 02:15:25;;;;;;;11.33;9.57;;;14.20;99.90;;;;;;5053465;28;20201;-76
2021/08/30 02:17:57;;;;;;;10.83;9.73;;;14.20;99.90;;;;;;5049547;28;20191;-77
2021/08/30 02:20:28;;;;;;;12.47;10.60;;;14.30;99.90;;;;;;5044791;28;20185;-76
2021/08/30 02:22:56;;;;;;;10.27;9.27;;;14.00;99.90;;;;;;5060924;28;20555;-76
2021/08/30 02:25:22;;;;;;;11.50;10.30;;;14.20;99.90;;;;;;5053278;28;20487;-76
2021/08/30 02:27:57;;;;;;;9.80;8.90;;;14.00;99.90;;;;;;5049198;28;20436;-76
2021/08/30 02:30:36;;;;;;;11.07;9.90;;;14.20;99.90;;;;;;5050277;28;20424;-76
2021/08/30 02:33:08;;;;;;;11.87;10.67;;;14.40;99.90;;;;;;5049437;28;20475;-77
2021/08/30 02:35:36;;;;;;;11.80;10.60;;;14.30;99.90;;;;;;5053609;28;20460;-76
2021/08/30 02:38:02;;;;;;;11.60;9.80;;;14.20;99.90;;;;;;5050904;28;20441;-76
2021/08/30 02:40:29;;;;;;;10.73;9.70;;;14.20;99.90;;;;;;5048958;28;20482;-76
2021/08/30 02:42:59;;;;;;;11.30;9.37;;;14.20;99.90;;;;;;5049933;28;21282;-76
2021/08/30 02:45:25;;;;;;;11.53;9.83;;;14.40;99.90;;;;;;5057203;28;21038;-78
2021/08/30 02:47:53;;;;;;;10.37;9.30;;;14.30;99.90;;;;;;5049535;28;20543;-79
2021/08/30 02:50:19;;;;;;;11.50;10.20;;;14.30;99.90;;;;;;5049297;28;20428;-79
2021/08/30 02:52:47;;;;;;;9.17;8.27;;;13.80;99.90;;;;;;5050977;28;20440;-78
2021/08/30 02:55:14;;;;;;;10.10;9.10;;;14.20;99.90;;;;;;5048981;28;20425;-79
2021/08/30 02:57:41;;;;;;;8.80;7.90;;;14.20;99.90;;;;;;5052464;28;20516;-78
2021/08/30 03:00:07;;;;;;;9.10;8.23;;;14.10;99.90;;;;;;5049485;28;20444;-78
2021/08/30 03:02:33;;;;;;;8.90;8.00;;;14.00;99.90;;;;;;5052367;28;20428;-78
2021/08/30 03:05:00;;;;;;;7.90;7.10;;;14.00;99.90;;;;;;5053322;28;20460;-77
2021/08/30 03:07:30;;;;;;;7.40;6.70;;;14.10;99.90;;;;;;5048906;28;20457;-77
2021/08/30 03:09:57;;;;;;;7.97;7.27;;;13.80;99.90;;;;;;5048959;28;20484;-77
2021/08/30 03:12:24;;;;;;;8.57;7.70;;;14.20;99.90;;;;;;5048201;28;20440;-77
2021/08/30 03:14:52;;;;;;;7.30;6.23;;;14.10;99.90;;;;;;5052274;28;20908;-77
2021/08/30 03:17:18;;;;;;;7.90;6.80;;;14.30;99.90;;;;;;5037960;28;20456;-77
2021/08/30 03:19:47;;;;;;;8.03;7.23;;;14.20;99.90;;;;;;5030785;28;21112;-78
2021/08/30 03:22:15;;;;;;;7.63;6.93;;;14.20;99.90;;;;;;5048667;28;20538;-77
2021/08/30 03:24:41;;;;;;;7.93;7.13;;;14.00;99.90;;;;;;5056366;28;20489;-78
2021/08/30 03:27:09;;;;;;;6.33;5.80;;;14.20;99.90;;;;;;5048664;28;20425;-78
2021/08/30 03:29:37;;;;;;;6.90;6.20;;;13.80;99.90;;;;;;5048553;28;20432;-78
2021/08/30 03:32:04;;;;;;;6.83;6.20;;;14.10;99.90;;;;;;5048608;28;20433;-78
2021/08/30 03:34:30;;;;;;;6.73;6.03;;;14.00;99.90;;;;;;5043066;28;20959;-77
2021/08/30 03:36:56;;;;;;;5.80;5.30;;;14.00;99.90;;;;;;5046544;28;20444;-77
2021/08/30 03:39:22;;;;;;;5.80;5.20;;;14.10;99.90;;;;;;5048032;28;20686;-78
2021/08/30 03:41:50;;;;;;;6.80;6.13;;;14.20;99.90;;;;;;5048187;28;20460;-77
2021/08/30 03:44:18;;;;;;;6.73;6.13;;;14.10;99.90;;;;;;5051041;28;20922;-78
2021/08/30 03:46:44;;;;;;;6.30;5.80;;;14.20;99.90;;;;;;5048092;28;20517;-77
2021/08/30 03:49:11;;;;;;;7.07;6.47;;;14.10;99.90;;;;;;5048198;28;20480;-77
2021/08/30 03:51:39;;;;;;;7.60;6.90;;;14.10;99.90;;;;;;5048929;28;20801;-76
2021/08/30 03:54:05;;;;;;;7.20;6.07;;;13.90;99.90;;;;;;5048337;28;20833;-78
2021/08/30 03:56:30;;;;;;;7.70;7.00;;;14.20;99.90;;;;;;5048433;28;20456;-79
2021/08/30 03:58:58;;;;;;;8.10;7.30;;;14.20;99.90;;;;;;5047217;28;20440;-79
2021/08/30 04:01:25;;;;;;;7.87;7.17;;;14.10;99.90;;;;;;5043646;28;20205;-76
2021/08/30 04:03:53;;;;;;;9.87;8.87;;;14.20;99.90;;;;;;5046337;28;20560;-78
2021/08/30 04:06:20;;;;;;;8.20;7.40;;;14.00;99.90;;;;;;5048397;28;20425;-78
2021/08/30 04:08:46;;;;;;;8.30;7.60;;;14.10;99.90;;;;;;5047892;28;20433;-78
2021/08/30 04:11:13;;;;;;;12.40;10.70;;;14.00;99.90;;;;;;5049550;28;20910;-78
2021/08/30 04:13:40;;;;;;;12.03;10.30;;;14.10;99.90;;;;;;5048320;28;20452;-77
2021/08/30 04:16:06;;;;;;;11.53;10.33;;;14.20;99.90;;;;;;5047970;28;20474;-78
2021/08/30 04:18:31;;;;;;;10.73;9.63;;;14.10;99.90;;;;;;5049488;28;20448;-78
2021/08/30 04:20:57;;;;;;;9.40;8.60;;;14.00;99.90;;;;;;5047635;28;20437;-77
2021/08/30 04:23:23;;;;;;;9.27;8.47;;;13.90;99.90;;;;;;5054549;28;20202;-77
2021/08/30 04:25:48;;;;;;;9.03;7.90;;;14.30;99.90;;;;;;5048088;28;20179;-78
2021/08/30 04:28:14;;;;;;;8.90;7.50;;;13.90;99.90;;;;;;5048452;28;20187;-78
2021/08/30 04:30:39;;;;;;;10.10;9.10;;;14.20;99.90;;;;;;5050700;28;20189;-78
2021/08/30 04:33:10;;;;;;;8.00;7.20;;;14.10;99.90;;;;;;5059430;28;20178;-79
2021/08/30 04:35:36;;;;;;;8.87;8.00;;;14.20;99.90;;;;;;5059983;28;20198;-77
2021/08/30 04:38:02;;;;;;;10.20;8.13;;;14.20;99.90;;;;;;5054143;28;20428;-78
2021/08/30 04:40:27;;;;;;;8.40;7.53;;;14.10;99.90;;;;;;5051030;28;20429;-76
2021/08/30 04:42:53;;;;;;;8.90;7.80;;;14.20;99.90;;;;;;5051244;28;20439;-77
2021/08/30 04:45:18;;;;;;;8.60;6.80;;;14.10;99.90;;;;;;5050758;28;20209;-77
2021/08/30 04:47:44;;;;;;;10.20;7.73;;;14.10;99.90;;;;;;5051040;28;20269;-78
2021/08/30 04:50:10;;;;;;;8.77;7.87;;;14.30;99.90;;;;;;5050870;28;20253;-80
2021/08/30 04:52:35;;;;;;;10.97;8.73;;;14.10;99.90;;;;;;5051100;28;20189;-78
2021/08/30 04:55:02;;;;;;;10.43;9.30;;;14.20;99.90;;;;;;5053536;28;20448;-80
2021/08/30 04:57:27;;;;;;;11.93;9.20;;;14.30;99.90;;;;;;5058517;28;20210;-79
2021/08/30 04:59:53;;;;;;;10.73;9.30;;;14.10;99.90;;;;;;5051569;28;20461;-79
2021/08/30 05:02:18;;;;;;;12.73;10.20;;;14.20;99.90;;;;;;5051949;28;20626;-78
2021/08/30 05:04:44;;;;;;;10.30;8.40;;;14.30;99.90;;;;;;5053434;28;20218;-77
2021/08/30 05:07:09;;;;;;;10.20;8.90;;;14.30;99.90;;;;;;5055117;28;20175;-78
2021/08/30 05:09:35;;;;;;;9.03;8.10;;;14.30;99.90;;;;;;5050096;28;20205;-77
2021/08/30 05:12:00;;;;;;;11.13;8.30;;;14.50;99.90;;;;;;5050873;28;20186;-80
2021/08/30 05:14:26;;;;;;;13.83;9.60;;;14.10;99.90;;;;;;5051202;28;20183;-81
2021/08/30 05:16:51;;;;;;;12.77;9.67;;;14.30;99.90;;;;;;5048973;28;20243;-77
2021/08/30 05:19:17;;;;;;;11.63;8.13;;;14.20;99.90;;;;;;5045587;28;20182;-77
2021/08/30 05:21:42;;;;;;;11.60;8.03;;;14.40;99.90;;;;;;5061596;28;20191;-76
2021/08/30 05:24:08;;;;;;;9.27;7.50;;;14.30;99.90;;;;;;5055802;28;20266;-78
2021/08/30 05:26:34;;;;;;;8.80;7.33;;;14.30;99.90;;;;;;5050626;28;20638;-77
2021/08/30 05:29:00;;;;;;;9.00;7.37;;;14.20;99.90;;;;;;5054690;28;20178;-76
2021/08/30 05:31:26;;;;;;;11.67;8.10;;;14.20;99.90;;;;;;5049128;28;20449;-76
2021/08/30 05:33:51;;;;;;;8.83;7.83;;;14.40;99.90;;;;;;5049211;28;20186;-76
2021/08/30 05:36:18;;;;;;;11.77;8.87;;;14.10;99.90;;;;;;5056232;28;20240;-76
2021/08/30 05:38:43;;;;;;;14.20;9.97;;;14.40;99.90;;;;;;5053418;28;20186;-76
2021/08/30 05:41:09;;;;;;;17.57;13.17;;;14.30;99.90;;;;;;5045490;28;20443;-76
2021/08/30 05:43:34;;;;;;;17.60;13.37;;;14.40;99.90;;;;;;5051950;28;20205;-75
2021/08/30 05:46:00;;;;;;;18.23;13.40;;;14.20;99.90;;;;;;5056911;28;20821;-76
2021/08/30 05:48:26;;;;;;;19.83;13.60;;;14.40;99.90;;;;;;5051036;28;20230;-76
2021/08/30 05:50:51;;;;;;;18.40;13.70;;;14.30;99.90;;;;;;5051521;28;20736;-75
2021/08/30 05:53:19;;;;;;;19.17;11.13;;;14.20;99.90;;;;;;5051444;28;20206;-75
2021/08/30 05:55:44;;;;;;;20.17;13.73;;;14.20;99.90;;;;;;5032640;28;20193;-75
2021/08/30 05:58:10;;;;;;;18.70;11.50;;;14.30;99.90;;;;;;5050064;28;20441;-75
2021/08/30 06:00:35;;;;;;;21.10;14.63;;;14.20;99.90;;;;;;5047945;28;20340;-75
2021/08/30 06:03:01;;;;;;;17.47;10.50;;;14.30;99.90;;;;;;5046648;28;20217;-75
2021/08/30 06:05:26;;;;;;;18.20;11.27;;;14.20;99.90;;;;;;5051012;28;20633;-75
2021/08/30 06:07:52;;;;;;;16.33;10.80;;;14.40;99.90;;;;;;5049293;28;20235;-75
2021/08/30 06:10:17;;;;;;;15.10;10.40;;;14.40;99.90;;;;;;5051796;28;20179;-75
2021/08/30 06:12:43;;;;;;;13.23;10.53;;;14.50;99.90;;;;;;5057988;28;20190;-81
2021/08/30 06:15:09;;;;;;;15.00;9.90;;;14.50;99.90;;;;;;5045575;28;20190;-74
2021/08/30 06:17:36;;;;;;;12.47;10.20;;;14.40;99.90;;;;;;5048921;28;20734;-75
2021/08/30 06:20:02;;;;;;;17.57;10.97;;;14.70;99.90;;;;;;5049968;28;20429;-76
2021/08/30 06:22:27;;;;;;;17.40;12.20;;;14.40;99.90;;;;;;5055919;28;20567;-75
2021/08/30 06:24:53;;;;;;;17.13;11.07;;;14.40;99.90;;;;;;5049226;28;20656;-76
2021/08/30 06:27:20;;;;;;;17.30;10.87;;;14.60;99.90;;;;;;5049056;28;20183;-75
2021/08/30 06:29:46;;;;;;;16.17;11.47;;;14.30;99.90;;;;;;5049279;28;20182;-73
2021/08/30 06:32:12;;;;;;;14.57;11.00;;;14.50;99.90;;;;;;5054423;28;20432;-75
2021/08/30 06:34:38;;;;;;;18.17;11.77;;;14.40;99.90;;;;;;5052682;28;20432;-74
2021/08/30 06:37:04;;;;;;;14.90;12.00;;;14.60;99.90;;;;;;5056068;28;20183;-75
2021/08/30 06:39:29;;;;;;;13.33;11.10;;;14.40;99.90;;;;;;5056269;28;20483;-75
2021/08/30 06:41:55;;;;;;;11.97;10.67;;;14.50;99.90;;;;;;5048807;28;20187;-75
2021/08/30 06:44:21;;;;;;;13.00;10.17;;;14.70;99.90;;;;;;5049221;28;20696;-75
2021/08/30 06:46:46;;;;;;;15.00;9.90;;;15.10;99.90;;;;;;5034841;28;20188;-75
2021/08/30 06:49:12;;;;;;;12.70;10.20;;;15.10;99.90;;;;;;5025621;28;20230;-75
2021/08/30 06:51:37;;;;;;;15.60;10.70;;;15.20;99.90;;;;;;5046174;28;20256;-75
2021/08/30 06:54:03;;;;;;;11.50;9.77;;;15.30;99.90;;;;;;5045769;28;20194;-76
2021/08/30 06:56:28;;;;;;;13.20;11.10;;;15.30;99.90;;;;;;5046056;28;20190;-73
2021/08/30 06:58:54;;;;;;;13.90;10.53;;;15.40;99.90;;;;;;5043761;28;20183;-74
2021/08/30 07:01:28;;;;;;;12.47;10.60;;;15.70;99.90;;;;;;5046910;28;20273;-74
2021/08/30 07:03:54;;;;;;;12.40;10.73;;;15.50;99.90;;;;;;5048111;28;20301;-74
2021/08/30 07:06:19;;;;;;;14.20;11.27;;;15.70;99.90;;;;;;5047870;28;20437;-74
2021/08/30 07:08:45;;;;;;;16.30;11.97;;;15.60;99.90;;;;;;5047253;28;20217;-75
2021/08/30 07:11:10;;;;;;;14.83;11.60;;;15.80;99.90;;;;;;5049257;28;20265;-74
2021/08/30 07:13:36;;;;;;;15.17;11.63;;;15.60;99.90;;;;;;5047940;28;20189;-74
2021/08/30 07:16:01;;;;;;;15.63;12.20;;;15.80;99.90;;;;;;5047713;28;20724;-74
2021/08/30 07:18:27;;;;;;;15.03;12.53;;;15.80;99.90;;;;;;5047380;28;20551;-75
2021/08/30 07:20:52;;;;;;;16.73;11.60;;;15.70;99.90;;;;;;5034716;28;20259;-75
2021/08/30 07:23:18;;;;;;;13.93;11.60;;;15.70;99.90;;;;;;5049030;28;20293;-75
2021/08/30 07:25:44;;;;;;;13.20;11.03;;;15.80;99.90;;;;;;5055952;28;20182;-75
2021/08/30 07:28:10;;;;;;;12.57;10.80;;;15.90;99.90;;;;;;5047501;28;20978;-75
2021/08/30 07:30:35;;;;;;;11.57;10.37;;;16.10;99.90;;;;;;5047073;28;20544;-76
2021/08/30 07:33:01;;;;;;;11.73;10.57;;;16.40;99.90;;;;;;5047683;28;20190;-77
2021/08/30 07:35:27;;;;;;;14.27;11.67;;;16.80;99.90;;;;;;5048057;28;20182;-76
2021/08/30 07:37:53;;;;;;;13.37;11.00;;;16.80;99.90;;;;;;5030016;28;20183;-76
2021/08/30 07:40:19;;;;;;;11.30;10.20;;;16.80;99.90;;;;;;5050737;28;20911;-74
2021/08/30 07:42:45;;;;;;;11.90;10.60;;;16.90;99.90;;;;;;5047587;28;20447;-74
2021/08/30 07:45:11;;;;;;;11.90;10.60;;;16.70;99.90;;;;;;5047219;28;20461;-75
2021/08/30 07:47:36;;;;;;;12.20;10.50;;;16.60;99.90;;;;;;5047807;28;20251;-75
2021/08/30 07:50:05;;;;;;;11.13;9.93;;;17.00;99.90;;;;;;5050716;28;20429;-76
2021/08/30 07:52:31;;;;;;;10.87;9.80;;;16.50;99.90;;;;;;5047917;28;20558;-75
2021/08/30 07:54:56;;;;;;;10.97;9.50;;;16.70;99.90;;;;;;5030539;28;20417;-76
2021/08/30 07:57:22;;;;;;;9.63;8.53;;;16.90;99.90;;;;;;5052005;28;20173;-77
2021/08/30 07:59:47;;;;;;;13.73;10.13;;;17.00;99.90;;;;;;5047795;28;20243;-76
2021/08/30 08:02:13;;;;;;;11.63;9.40;;;17.20;99.90;;;;;;5047687;28;20179;-76
2021/08/30 08:04:38;;;;;;;10.60;9.50;;;17.30;99.90;;;;;;5052337;28;20567;-75
2021/08/30 08:07:04;;;;;;;10.77;9.67;;;17.00;99.90;;;;;;5051447;28;20178;-76
2021/08/30 08:09:30;;;;;;;10.20;9.00;;;17.10;99.90;;;;;;5051814;28;20192;-76
2021/08/30 08:11:56;;;;;;;10.17;9.17;;;17.00;99.90;;;;;;5051570;28;20228;-77
2021/08/30 08:14:21;;;;;;;10.17;8.63;;;16.50;99.90;;;;;;5051566;28;20428;-77
2021/08/30 08:16:47;;;;;;;9.10;8.20;;;16.30;99.90;;;;;;5051576;28;20179;-77
2021/08/30 08:19:14;;;;;;;10.57;9.47;;;16.60;99.90;;;;;;5051400;28;20193;-76
2021/08/30 08:21:41;;;;;;;9.60;8.60;;;16.30;99.90;;;;;;5051557;28;20261;-77
2021/08/30 08:24:08;;;;;;;9.83;8.83;;;16.30;99.90;;;;;;5051910;28;20819;-77
2021/08/30 08:26:34;;;;;;;10.80;9.03;;;16.40;99.90;;;;;;5051324;28;20424;-76
2021/08/30 08:29:00;;;;;;;9.90;8.87;;;16.30;99.90;;;;;;5051444;28;20506;-77
2021/08/30 08:31:26;;;;;;;9.67;8.70;;;16.50;99.90;;;;;;5055778;28;20523;-77
2021/08/30 08:33:52;;;;;;;9.50;8.50;;;16.60;99.90;;;;;;5050834;28;20436;-77
2021/08/30 08:36:20;;;;;;;12.00;8.30;;;16.60;99.90;;;;;;5062378;28;20442;-77
2021/08/30 08:38:46;;;;;;;8.93;8.03;;;16.50;99.90;;;;;;5055135;28;20938;-77
2021/08/30 08:41:11;;;;;;;9.20;8.20;;;16.90;99.90;;;;;;5052334;28;20436;-76
2021/08/30 08:43:37;;;;;;;9.40;8.40;;;16.40;99.90;;;;;;5051200;28;20210;-77
2021/08/30 08:46:03;;;;;;;9.40;8.40;;;16.40;99.90;;;;;;5050935;28;20254;-77
2021/08/30 08:48:29;;;;;;;7.93;7.23;;;16.30;99.90;;;;;;5055679;28;20276;-76
2021/08/30 08:50:54;;;;;;;8.00;7.20;;;16.30;99.90;;;;;;5054593;28;20529;-78
2021/08/30 08:53:20;;;;;;;7.60;7.00;;;16.10;99.90;;;;;;5051004;28;20225;-78
2021/08/30 08:55:46;;;;;;;9.07;7.57;;;16.40;99.90;;;;;;5050601;28;20190;-77
2021/08/30 08:58:17;;;;;;;9.50;8.70;;;16.20;99.90;;;;;;5050583;28;20433;-78
2021/08/30 09:00:45;;;;;;;7.40;6.80;;;16.60;99.90;;;;;;5051104;28;20190;-77
2021/08/30 09:03:19;;;;;;;8.50;6.97;;;16.30;99.90;;;;;;5038683;28;20469;-77
2021/08/30 09:05:44;;;;;;;8.90;6.80;;;16.40;99.90;;;;;;5035372;28;20434;-78
2021/08/30 09:08:31;;;;;;;8.13;6.87;;;16.50;99.90;;;;;;5049774;28;20829;-84
2021/08/30 09:10:58;;;;;;;9.17;6.87;;;16.60;99.90;;;;;;5057160;28;20193;-79
2021/08/30 09:13:29;;;;;;;8.40;7.40;;;16.90;99.90;;;;;;5033374;28;20421;-78
2021/08/30 09:15:55;;;;;;;8.90;8.00;;;16.80;99.90;;;;;;5040502;28;20519;-76
2021/08/30 09:18:27;;;;;;;7.30;6.60;;;16.70;99.90;;;;;;5049722;28;21043;-77
2021/08/30 09:20:53;;;;;;;6.53;5.93;;;16.70;99.90;;;;;;5050108;28;20498;-78
2021/08/30 09:23:19;;;;;;;7.70;6.93;;;17.00;99.90;;;;;;5050406;28;20970;-77
2021/08/30 09:25:44;;;;;;;7.20;6.50;;;17.60;99.90;;;;;;5049266;28;20206;-77
2021/08/30 09:28:10;;;;;;;7.40;6.70;;;18.80;99.90;;;;;;5050270;28;20227;-78
2021/08/30 09:30:36;;;;;;;8.63;5.83;;;20.20;99.90;;;;;;5050464;28;20326;-78
2021/08/30 09:33:02;;;;;;;7.63;6.93;;;20.60;99.90;;;;;;5050114;28;20855;-77
2021/08/30 09:35:28;;;;;;;6.80;6.20;;;21.80;99.90;;;;;;5049048;28;20520;-76
2021/08/30 09:37:54;;;;;;;7.57;6.97;;;22.10;99.90;;;;;;5050357;28;20520;-74
2021/08/30 09:40:23;;;;;;;7.50;6.80;;;22.60;99.90;;;;;;5054533;28;20187;-75
2021/08/30 09:42:52;;;;;;;7.13;6.50;;;22.60;99.90;;;;;;5049231;28;20531;-78
2021/08/30 09:45:20;;;;;;;6.80;6.20;;;23.00;99.90;;;;;;5042322;28;20799;-76
2021/08/30 09:47:56;;;;;;;8.30;7.60;;;23.00;99.90;;;;;;5057957;28;20929;-80
2021/08/30 09:50:40;;;;;;;7.17;6.57;;;22.50;99.90;;;;;;5049132;28;20433;-77
2021/08/30 09:53:06;;;;;;;8.23;7.50;;;21.90;99.90;;;;;;5063264;28;20413;-89
2021/08/30 09:55:33;;;;;;;8.33;7.60;;;22.30;99.90;;;;;;5043736;28;20477;-77
2021/08/30 09:57:59;;;;;;;8.70;7.90;;;23.00;99.90;;;;;;5051021;28;20438;-94
2021/08/30 10:00:26;;;;;;;8.63;7.83;;;23.40;99.90;;;;;;5057508;28;20492;-91
2021/08/30 10:02:58;;;;;;;8.43;7.73;;;23.30;99.90;;;;;;5051616;28;20543;-75
2021/08/30 10:05:25;;;;;;;8.40;7.70;;;22.70;99.90;;;;;;5048689;28;20432;-75
2021/08/30 10:07:53;;;;;;;9.00;8.10;;;21.60;99.90;;;;;;5057082;28;20798;-75
2021/08/30 10:10:20;;;;;;;8.70;7.83;;;21.20;99.90;;;;;;5049166;28;21027;-75
2021/08/30 10:12:48;;;;;;;9.57;8.53;;;20.80;99.90;;;;;;5049681;28;20445;-90
2021/08/30 10:15:18;;;;;;;9.90;8.90;;;19.70;99.90;;;;;;5046481;28;20529;-75
2021/08/30 10:17:47;;;;;;;10.13;9.13;;;19.50;99.90;;;;;;5042163;28;20444;-77
2021/08/30 10:20:24;;;;;;;11.10;10.00;;;18.60;99.90;;;;;;5050440;28;20447;-77
2021/08/30 10:23:03;;;;;;;11.27;10.17;;;18.40;99.90;;;;;;5027507;28;20541;-76
2021/08/30 10:25:31;;;;;;;10.70;8.83;;;17.80;99.90;;;;;;5048723;28;20438;-77
2021/08/30 10:28:03;;;;;;;12.80;10.03;;;18.00;99.90;;;;;;5053329;28;20433;-77
2021/08/30 10:30:32;;;;;;;10.20;9.20;;;18.10;99.90;;;;;;5049404;28;20451;-76
2021/08/30 10:33:00;;;;;;;11.30;10.17;;;18.10;99.90;;;;;;5049155;28;20433;-77
2021/08/30 10:35:33;;;;;;;10.90;9.87;;;18.00;99.90;;;;;;5053402;28;20432;-77
2021/08/30 10:38:04;;;;;;;12.27;10.17;;;18.60;99.90;;;;;;5053258;28;21001;-76
2021/08/30 10:40:32;;;;;;;10.33;9.40;;;19.90;99.90;;;;;;5048918;28;20428;-76
2021/08/30 10:43:08;;;;;;;11.23;10.07;;;20.50;99.90;;;;;;5049141;28;20460;-77
2021/08/30 10:45:39;;;;;;;9.80;8.80;;;20.80;99.90;;;;;;5051021;28;20469;-76
2021/08/30 10:48:08;;;;;;;10.33;9.23;;;20.30;99.90;;;;;;5048664;28;20476;-77
2021/08/30 10:50:45;;;;;;;10.33;9.20;;;20.20;99.90;;;;;;5047997;28;20452;-77
2021/08/30 10:53:19;;;;;;;9.87;8.87;;;19.90;99.90;;;;;;5048804;28;20492;-77
2021/08/30 10:55:48;;;;;;;10.10;9.10;;;20.00;99.90;;;;;;5043031;28;20439;-77
2021/08/30 10:58:20;;;;;;;9.33;8.43;;;20.00;99.90;;;;;;5048642;28;20793;-78
2021/08/30 11:00:49;;;;;;;8.90;8.03;;;19.80;99.90;;;;;;5041108;28;20478;-76
2021/08/30 11:03:34;;;;;;;10.10;8.73;;;19.80;99.90;;;;;;5048253;28;20584;-77
2021/08/30 11:06:11;;;;;;;10.70;9.10;;;19.80;99.90;;;;;;5044634;28;20440;-76
2021/08/30 11:08:43;;;;;;;8.80;8.00;;;19.60;99.90;;;;;;5046635;28;20727;-77
2021/08/30 11:11:18;;;;;;;10.20;9.10;;;19.60;99.90;;;;;;5047221;28;20764;-77
2021/08/30 11:13:59;;;;;;;11.13;9.33;;;19.30;99.90;;;;;;5048374;28;20496;-77
2021/08/30 11:16:26;;;;;;;10.30;9.20;;;19.30;99.90;;;;;;5052135;28;20430;-76
2021/08/30 11:18:54;;;;;;;10.23;9.20;;;19.60;99.90;;;;;;5048082;28;20435;-76
2021/08/30 11:21:44;;;;;;;8.87;8.07;;;19.30;99.90;;;;;;5032672;28;20505;-81
2021/08/30 11:24:20;;;;;;;9.53;8.63;;;19.10;99.90;;;;;;5047536;28;20477;-78
2021/08/30 11:26:45;;;;;;;10.83;9.03;;;18.90;99.90;;;;;;5048101;28;20438;-77
2021/08/30 11:29:11;;;;;;;9.07;8.27;;;18.40;99.90;;;;;;5024724;28;20454;-76
2021/08/30 11:31:40;;;;;;;8.30;7.47;;;18.10;99.90;;;;;;5038413;28;20182;-77
2021/08/30 11:34:20;;;;;;;9.27;8.30;;;18.10;99.90;;;;;;5052732;28;20517;-77
2021/08/30 11:36:47;;;;;;;11.53;10.13;;;18.50;99.90;;;;;;5054173;28;20426;-76
2021/08/30 11:39:16;;;;;;;10.07;9.07;;;18.90;99.90;;;;;;5047998;28;20442;-77
2021/08/30 11:41:54;;;;;;;9.20;8.30;;;19.60;99.90;;;;;;5048311;28;20765;-77
2021/08/30 11:44:19;;;;;;;9.07;8.27;;;20.00;99.90;;;;;;5046541;28;21110;-77
2021/08/30 11:46:57;;;;;;;9.50;8.47;;;19.60;99.90;;;;;;5048061;28;20442;-77
2021/08/30 11:49:28;;;;;;;10.30;9.30;;;19.30;99.90;;;;;;5054632;28;20227;-76
2021/08/30 11:51:57;;;;;;;12.50;9.33;;;19.10;99.90;;;;;;5053917;28;20440;-86
2021/08/30 11:54:39;;;;;;;10.47;9.47;;;19.10;99.90;;;;;;5048358;28;20441;-76
2021/08/30 11:57:08;;;;;;;9.77;8.80;;;19.40;99.90;;;;;;5047540;28;20439;-94
2021/08/30 11:59:36;;;;;;;8.93;8.00;;;19.30;99.90;;;;;;5029979;28;20813;-89
2021/08/30 12:02:03;;;;;;;10.47;9.10;;;19.20;99.90;;;;;;5047211;28;20943;-77
2021/08/30 12:04:37;;;;;;;9.73;8.73;;;19.30;99.90;;;;;;5045861;28;20817;-76
2021/08/30 12:07:06;;;;;;;10.53;8.67;;;19.00;99.90;;;;;;5050634;28;20418;-94
2021/08/30 12:09:52;;;;;;;9.20;8.33;;;19.00;99.90;;;;;;5050783;28;20449;-77
2021/08/30 12:12:35;;;;;;;10.27;9.27;;;19.20;99.90;;;;;;5050821;28;21250;-76
2021/08/30 12:15:05;;;;;;;11.20;10.00;;;19.20;99.90;;;;;;5054289;28;20435;-81
2021/08/30 12:17:36;;;;;;;9.40;8.30;;;19.10;99.90;;;;;;5048702;28;20455;-77
2021/08/30 12:20:15;;;;;;;9.43;8.43;;;19.10;99.90;;;;;;5046013;28;20466;-76
2021/08/30 12:22:49;;;;;;;10.60;9.10;;;18.90;99.90;;;;;;5047295;28;20469;-91
2021/08/30 12:25:25;;;;;;;10.93;9.90;;;18.90;99.90;;;;;;5046238;28;20469;-76
2021/08/30 12:27:52;;;;;;;11.13;10.03;;;19.00;99.90;;;;;;5045761;28;20542;-77
2021/08/30 12:30:32;;;;;;;10.40;9.30;;;19.10;99.90;;;;;;5045145;28;20574;-77
2021/08/30 12:33:06;;;;;;;9.57;8.67;;;19.20;99.90;;;;;;5045735;28;20431;-77
2021/08/30 12:35:43;;;;;;;9.87;8.90;;;19.90;99.90;;;;;;5050510;28;20428;-77
2021/08/30 12:38:11;;;;;;;9.67;8.80;;;20.10;99.90;;;;;;5046826;28;21015;-78
2021/08/30 12:40:43;;;;;;;10.37;9.37;;;20.30;99.90;;;;;;5044748;28;20886;-76
2021/08/30 12:43:09;;;;;;;8.53;7.73;;;20.50;99.90;;;;;;5041537;28;20851;-77
2021/08/30 12:45:36;;;;;;;10.23;9.23;;;20.60;99.90;;;;;;5045775;28;20451;-79
2021/08/30 12:48:02;;;;;;;9.73;8.83;;;20.40;99.90;;;;;;5044310;28;20459;-78